Time;durP1;ratioP1;P1;durP2;ratioP2;P2;SDS_P1;SDS_P2;PMS_P1;PMS_P2;Temp;Humidity;BMP_temperature;BMP_pressure;BME280_temperature;BME280_humidity;BME280_pressure;Samples;Min_cycle;Max_cycle;Signal;HPM_P1;HPM_P2
2023/01/19 00:00:56;;;;;;;23.20;9.60;;;13.90;89.20;;;;;;5048903;28;20219;-76
2023/01/19 00:03:25;;;;;;;17.77;7.80;;;13.90;89.40;;;;;;5046585;28;20254;-80
2023/01/19 00:05:53;;;;;;;27.70;7.60;;;13.90;89.40;;;;;;5046474;28;20254;-76
2023/01/19 00:08:21;;;;;;;20.13;6.80;;;13.90;89.40;;;;;;5045808;28;20283;-77
2023/01/19 00:10:51;;;;;;;21.50;6.67;;;13.80;89.50;;;;;;5058399;28;20644;-79
2023/01/19 00:13:19;;;;;;;26.53;6.60;;;13.90;89.60;;;;;;5050875;28;20202;-78
2023/01/19 00:15:49;;;;;;;23.97;8.53;;;13.80;89.50;;;;;;5041854;28;20661;-78
2023/01/19 00:18:17;;;;;;;24.15;7.05;;;13.80;90.00;;;;;;5042239;28;20445;-78
2023/01/19 00:20:46;;;;;;;24.37;6.30;;;13.80;90.20;;;;;;5052064;28;20241;-77
2023/01/19 00:23:14;;;;;;;33.23;7.77;;;13.80;90.10;;;;;;5038711;28;20202;-76
2023/01/19 00:25:43;;;;;;;23.70;6.27;;;13.80;90.40;;;;;;5046229;28;20640;-78
2023/01/19 00:28:12;;;;;;;23.53;7.23;;;13.80;90.20;;;;;;5038801;28;21029;-79
2023/01/19 00:30:41;;;;;;;19.50;6.10;;;13.70;90.10;;;;;;5048513;28;20249;-78
2023/01/19 00:33:12;;;;;;;35.07;6.30;;;13.70;90.10;;;;;;5045016;28;20198;-77
2023/01/19 00:35:42;;;;;;;25.37;6.33;;;13.80;90.10;;;;;;5052798;28;20330;-77
2023/01/19 00:38:11;;;;;;;23.53;6.37;;;13.70;90.00;;;;;;5042644;28;20202;-76
2023/01/19 00:40:39;;;;;;;23.10;5.90;;;13.70;90.00;;;;;;5046733;28;20600;-77
2023/01/19 00:43:06;;;;;;;13.83;5.70;;;13.70;90.00;;;;;;5042611;28;20316;-76
2023/01/19 00:45:35;;;;;;;29.50;5.37;;;13.70;90.00;;;;;;5035254;28;20225;-79
2023/01/19 00:48:03;;;;;;;24.43;5.70;;;13.60;90.00;;;;;;5035584;28;20211;-79
2023/01/19 00:50:33;;;;;;;16.67;5.37;;;13.70;90.00;;;;;;5037077;28;20256;-79
2023/01/19 00:53:01;;;;;;;27.07;6.60;;;13.70;90.00;;;;;;5042825;28;20281;-79
2023/01/19 00:55:32;;;;;;;25.23;5.43;;;13.70;90.00;;;;;;5044039;28;20203;-77
2023/01/19 00:58:01;;;;;;;13.83;4.87;;;13.60;90.00;;;;;;5041956;28;20288;-76
2023/01/19 01:00:30;;;;;;;31.40;5.73;;;13.60;90.00;;;;;;5045185;28;20214;-78
2023/01/19 01:02:58;;;;;;;25.87;6.47;;;13.60;90.00;;;;;;5049696;28;20218;-77
2023/01/19 01:05:27;;;;;;;28.55;7.45;;;13.60;90.00;;;;;;5044992;28;20850;-77
2023/01/19 01:07:57;;;;;;;20.90;6.47;;;13.60;90.10;;;;;;5043393;28;20723;-79
2023/01/19 01:10:27;;;;;;;36.53;6.37;;;13.70;90.40;;;;;;5042110;28;20211;-76
2023/01/19 01:12:56;;;;;;;20.03;5.57;;;13.60;90.50;;;;;;5044354;28;20203;-79
2023/01/19 01:15:27;;;;;;;27.40;5.67;;;13.60;90.40;;;;;;5044426;28;20644;-78
2023/01/19 01:17:55;;;;;;;33.60;7.25;;;13.60;90.30;;;;;;5038927;28;20458;-77
2023/01/19 01:20:29;;;;;;;18.90;5.60;;;13.50;90.50;;;;;;5044840;28;20249;-78
2023/01/19 01:22:58;;;;;;;25.57;5.70;;;13.60;90.40;;;;;;5038426;28;20211;-77
2023/01/19 01:25:29;;;;;;;36.17;6.07;;;13.50;90.30;;;;;;5041073;28;20199;-77
2023/01/19 01:27:58;;;;;;;20.77;4.90;;;13.50;90.20;;;;;;5043151;28;20203;-78
2023/01/19 01:30:26;;;;;;;24.93;6.20;;;13.50;90.20;;;;;;5046303;28;20441;-76
2023/01/19 01:32:55;;;;;;;25.97;6.83;;;13.50;90.60;;;;;;5040660;28;20560;-78
2023/01/19 01:35:23;;;;;;;26.47;6.70;;;13.40;90.40;;;;;;5032187;28;20207;-76
2023/01/19 01:37:51;;;;;;;22.30;6.07;;;13.40;90.70;;;;;;5040826;28;20613;-76
2023/01/19 01:40:21;;;;;;;26.53;6.67;;;13.40;90.30;;;;;;5047109;28;20202;-78
2023/01/19 01:42:49;;;;;;;26.97;5.80;;;13.40;90.20;;;;;;5049466;28;20235;-76
2023/01/19 01:45:31;;;;;;;21.80;5.40;;;13.40;90.20;;;;;;5050928;28;20570;-76
2023/01/19 01:48:06;;;;;;;27.20;6.83;;;13.40;90.10;;;;;;5037348;28;20191;-78
2023/01/19 01:50:38;;;;;;;27.47;5.90;;;13.30;90.10;;;;;;5057415;28;20620;-77
2023/01/19 01:53:11;;;;;;;27.40;6.07;;;13.30;90.10;;;;;;5041113;28;20222;-76
2023/01/19 01:55:45;;;;;;;19.30;5.57;;;13.30;90.10;;;;;;5051325;28;20187;-79
2023/01/19 01:58:14;;;;;;;20.60;6.10;;;13.20;90.00;;;;;;5055084;28;20198;-80
2023/01/19 02:03:31;;;;;;;29.20;5.03;;;13.20;90.40;;;;;;5046774;28;20376;-79
2023/01/19 02:06:02;;;;;;;23.37;6.13;;;13.10;90.30;;;;;;5051670;28;20196;-76
2023/01/19 02:14:08;;;;;;;29.73;6.63;;;13.00;90.50;;;;;;5036300;28;20641;-79
2023/01/19 02:16:37;;;;;;;25.03;6.67;;;13.00;90.60;;;;;;5051051;28;20758;-77
2023/01/19 02:19:09;;;;;;;27.10;7.50;;;13.00;90.50;;;;;;5044007;28;20202;-75
2023/01/19 02:21:45;;;;;;;32.53;8.17;;;12.90;90.50;;;;;;5037114;28;20245;-77
2023/01/19 02:24:14;;;;;;;25.33;6.57;;;12.90;90.50;;;;;;5044112;28;20277;-77
2023/01/19 02:26:46;;;;;;;37.20;7.70;;;12.90;90.40;;;;;;5048963;28;20713;-76
2023/01/19 02:29:16;;;;;;;28.90;7.10;;;12.90;90.40;;;;;;5038151;28;20192;-78
2023/01/19 02:31:45;;;;;;;33.93;6.73;;;12.80;90.40;;;;;;5048006;28;20260;-78
2023/01/19 02:34:16;;;;;;;27.37;7.47;;;12.80;90.50;;;;;;5034970;28;20202;-77
2023/01/19 02:36:50;;;;;;;28.13;7.30;;;12.80;90.50;;;;;;5053643;28;20191;-76
2023/01/19 02:39:27;;;;;;;28.87;8.10;;;12.80;90.60;;;;;;5040296;28;20253;-78
2023/01/19 02:42:04;;;;;;;25.83;8.40;;;12.80;90.60;;;;;;5047841;28;20249;-76
2023/01/19 02:44:34;;;;;;;28.57;8.77;;;12.70;90.60;;;;;;5049379;28;20318;-78
2023/01/19 02:47:03;;;;;;;31.80;8.37;;;12.70;90.60;;;;;;5042126;28;20616;-79
2023/01/19 02:49:31;;;;;;;31.27;8.80;;;12.70;90.70;;;;;;5038610;28;20608;-76
2023/01/19 02:52:00;;;;;;;20.77;8.40;;;12.70;90.70;;;;;;5046832;28;20729;-76
2023/01/19 02:54:39;;;;;;;34.60;9.90;;;12.70;90.70;;;;;;5048640;28;20249;-76
2023/01/19 02:57:25;;;;;;;23.23;8.70;;;12.60;90.90;;;;;;5045392;28;20196;-77
2023/01/19 03:00:09;;;;;;;31.43;8.83;;;12.60;90.90;;;;;;5045680;28;20191;-76
2023/01/19 03:02:49;;;;;;;27.23;8.50;;;12.60;90.80;;;;;;5036577;28;20282;-78
2023/01/19 03:05:32;;;;;;;26.50;8.33;;;12.60;90.80;;;;;;5044014;28;20201;-77
2023/01/19 03:08:08;;;;;;;28.17;7.87;;;12.60;90.70;;;;;;5048328;28;20195;-76
2023/01/19 03:10:45;;;;;;;33.67;8.13;;;12.60;90.70;;;;;;5056496;28;20251;-75
2023/01/19 03:13:17;;;;;;;30.40;8.17;;;12.50;90.70;;;;;;5041165;28;20254;-76
2023/01/19 03:15:50;;;;;;;24.57;7.80;;;12.50;90.70;;;;;;5039160;28;20652;-76
2023/01/19 03:18:21;;;;;;;22.90;8.43;;;12.50;90.70;;;;;;5042303;28;20670;-77
2023/01/19 03:20:53;;;;;;;24.00;9.13;;;12.40;90.70;;;;;;5056545;28;20195;-76
2023/01/19 03:23:25;;;;;;;28.03;7.90;;;12.40;90.70;;;;;;5049836;28;21000;-75
2023/01/19 03:25:57;;;;;;;29.50;8.50;;;12.40;90.70;;;;;;5048963;28;20214;-81
2023/01/19 03:28:28;;;;;;;24.80;8.30;;;12.40;90.70;;;;;;5044012;28;20199;-77
2023/01/19 03:31:00;;;;;;;22.17;9.00;;;12.40;90.70;;;;;;5043513;28;21638;-80
2023/01/19 03:33:31;;;;;;;20.73;9.17;;;12.40;90.70;;;;;;5048256;28;20297;-79
2023/01/19 03:36:05;;;;;;;28.77;10.40;;;12.40;90.80;;;;;;5046792;28;20191;-78
2023/01/19 03:38:37;;;;;;;25.00;8.67;;;12.40;90.80;;;;;;5044751;28;20198;-77
2023/01/19 03:41:12;;;;;;;27.83;9.17;;;12.40;90.70;;;;;;5048960;28;20215;-76
2023/01/19 03:43:42;;;;;;;29.70;8.63;;;12.40;90.70;;;;;;5046693;28;20611;-76
2023/01/19 03:46:15;;;;;;;23.73;7.83;;;12.40;90.70;;;;;;5043525;28;20675;-79
2023/01/19 03:48:45;;;;;;;25.87;8.43;;;12.30;90.70;;;;;;5045957;28;20244;-79
2023/01/19 03:51:15;;;;;;;32.50;9.53;;;12.30;90.70;;;;;;5051001;28;20714;-79
2023/01/19 03:53:43;;;;;;;22.93;8.07;;;12.30;90.70;;;;;;5027780;28;20730;-79
2023/01/19 03:56:17;;;;;;;28.20;8.23;;;12.30;90.60;;;;;;5028424;28;20207;-75
2023/01/19 03:58:46;;;;;;;24.03;8.00;;;12.20;90.60;;;;;;5027735;28;20198;-78
2023/01/19 04:01:15;;;;;;;25.87;8.40;;;12.20;90.60;;;;;;5023872;28;20273;-77
2023/01/19 04:03:43;;;;;;;25.67;8.40;;;12.20;90.60;;;;;;5026609;28;20208;-76
2023/01/19 04:06:12;;;;;;;23.90;8.73;;;12.10;90.60;;;;;;5025263;28;20201;-77
2023/01/19 04:08:40;;;;;;;22.27;8.10;;;12.10;90.60;;;;;;5027477;28;20252;-77
2023/01/19 04:11:09;;;;;;;25.03;7.83;;;12.00;90.60;;;;;;5025212;28;20627;-79
2023/01/19 04:13:38;;;;;;;24.50;8.43;;;12.00;90.60;;;;;;5025755;28;20191;-77
2023/01/19 04:16:07;;;;;;;19.63;7.00;;;12.00;90.60;;;;;;5027562;28;20226;-77
2023/01/19 04:18:36;;;;;;;32.03;8.37;;;12.00;90.70;;;;;;5029803;28;20196;-76
2023/01/19 04:21:06;;;;;;;25.33;6.93;;;11.90;90.60;;;;;;5019355;28;20261;-77
2023/01/19 04:23:35;;;;;;;18.97;8.07;;;11.90;90.60;;;;;;5018327;28;20663;-78
2023/01/19 04:26:05;;;;;;;20.73;7.70;;;11.90;90.60;;;;;;5026140;28;20257;-77
2023/01/19 04:28:35;;;;;;;24.40;7.83;;;11.80;90.60;;;;;;5028811;28;20490;-77
2023/01/19 04:31:06;;;;;;;21.33;7.27;;;11.80;90.60;;;;;;5032859;28;20197;-78
2023/01/19 04:33:35;;;;;;;26.13;7.20;;;11.80;90.60;;;;;;5019521;28;20194;-79
2023/01/19 04:36:04;;;;;;;17.80;6.93;;;11.70;90.60;;;;;;5024348;28;20258;-78
2023/01/19 04:38:32;;;;;;;24.47;8.13;;;11.70;90.60;;;;;;5022064;28;20200;-75
2023/01/19 04:41:00;;;;;;;19.17;7.07;;;11.70;90.60;;;;;;5030572;28;20223;-77
2023/01/19 04:43:29;;;;;;;23.57;7.90;;;11.70;90.60;;;;;;5022759;28;20671;-79
2023/01/19 04:45:57;;;;;;;18.77;7.73;;;11.60;90.70;;;;;;5031769;28;20616;-77
2023/01/19 04:48:27;;;;;;;24.57;6.93;;;11.60;90.70;;;;;;5013814;28;20200;-78
2023/01/19 04:50:55;;;;;;;25.70;7.83;;;11.60;90.70;;;;;;5028875;28;20716;-76
2023/01/19 04:53:24;;;;;;;23.20;7.67;;;11.60;90.70;;;;;;5020202;28;20261;-79
2023/01/19 04:55:54;;;;;;;20.70;7.03;;;11.50;90.60;;;;;;5020829;28;20200;-78
2023/01/19 04:58:23;;;;;;;22.70;6.33;;;11.50;90.70;;;;;;5011783;28;20434;-76
2023/01/19 05:00:51;;;;;;;18.93;7.43;;;11.50;90.70;;;;;;5034341;28;20242;-77
2023/01/19 05:03:20;;;;;;;21.37;7.00;;;11.50;90.70;;;;;;5024753;28;20210;-78
2023/01/19 05:05:50;;;;;;;31.93;7.43;;;11.50;90.70;;;;;;5028769;28;20295;-78
2023/01/19 05:08:18;;;;;;;24.57;7.70;;;11.50;90.70;;;;;;5011594;28;20266;-77
2023/01/19 05:10:48;;;;;;;24.67;7.50;;;11.50;90.70;;;;;;5028417;28;20284;-78
2023/01/19 05:13:16;;;;;;;26.83;7.93;;;11.40;90.80;;;;;;5016622;28;20231;-79
2023/01/19 05:15:45;;;;;;;32.97;8.00;;;11.40;90.70;;;;;;5034412;28;20231;-79
2023/01/19 05:18:13;;;;;;;20.07;6.90;;;11.40;90.80;;;;;;5025051;28;20203;-75
2023/01/19 05:20:41;;;;;;;25.63;8.63;;;11.40;90.90;;;;;;5027673;28;20435;-76
2023/01/19 05:23:11;;;;;;;21.60;7.07;;;11.40;91.00;;;;;;5020793;28;20192;-77
2023/01/19 05:25:40;;;;;;;24.13;6.93;;;11.40;91.20;;;;;;5032624;28;20567;-76
2023/01/19 05:28:08;;;;;;;21.23;7.13;;;11.40;91.20;;;;;;5028800;28;20254;-76
2023/01/19 05:30:37;;;;;;;21.90;6.50;;;11.40;91.30;;;;;;5043768;28;20253;-79
2023/01/19 05:33:05;;;;;;;24.80;6.63;;;11.30;91.30;;;;;;5035099;28;20291;-78
2023/01/19 05:35:34;;;;;;;24.13;6.63;;;11.40;91.70;;;;;;5022861;28;20261;-75
2023/01/19 05:38:04;;;;;;;22.33;7.43;;;11.40;91.50;;;;;;5018717;28;20204;-78
2023/01/19 05:40:33;;;;;;;24.97;6.93;;;11.40;91.60;;;;;;5038511;28;20204;-79
2023/01/19 05:43:03;;;;;;;27.10;7.90;;;11.50;91.70;;;;;;5031489;28;20212;-81
2023/01/19 05:45:33;;;;;;;18.60;6.23;;;11.50;91.70;;;;;;5026892;28;20208;-76
2023/01/19 05:48:01;;;;;;;18.47;6.13;;;11.50;91.60;;;;;;5027988;28;20204;-79
2023/01/19 05:50:29;;;;;;;26.00;7.10;;;11.40;91.50;;;;;;5022931;28;20200;-78
2023/01/19 05:52:58;;;;;;;23.30;7.10;;;11.40;91.50;;;;;;5025887;28;20312;-78
2023/01/19 05:55:27;;;;;;;23.00;7.00;;;11.40;91.40;;;;;;5027562;28;20195;-80
2023/01/19 05:57:57;;;;;;;19.00;7.20;;;11.40;91.40;;;;;;5016623;28;20200;-83
2023/01/19 06:00:26;;;;;;;18.13;6.97;;;11.40;91.30;;;;;;5022323;28;20225;-81
2023/01/19 06:02:54;;;;;;;22.10;7.93;;;11.40;91.30;;;;;;5017779;28;20220;-78
2023/01/19 06:05:23;;;;;;;24.77;8.30;;;11.30;91.30;;;;;;5025532;28;20223;-81
2023/01/19 06:07:51;;;;;;;25.17;8.80;;;11.30;91.30;;;;;;5027015;28;20191;-79
2023/01/19 06:10:19;;;;;;;28.03;9.27;;;11.30;91.30;;;;;;5025850;28;21704;-79
2023/01/19 06:12:49;;;;;;;20.27;7.77;;;11.20;91.20;;;;;;5031430;28;20196;-78
2023/01/19 06:15:19;;;;;;;20.83;7.60;;;11.20;91.20;;;;;;5026696;28;20597;-77
2023/01/19 06:17:47;;;;;;;26.13;9.33;;;11.20;91.30;;;;;;5027995;28;20254;-79
2023/01/19 06:20:15;;;;;;;25.50;8.97;;;11.10;91.20;;;;;;5024628;28;20232;-80
2023/01/19 06:22:44;;;;;;;25.30;9.17;;;11.10;91.20;;;;;;5030057;28;20255;-79
2023/01/19 06:25:12;;;;;;;24.77;10.07;;;11.10;91.30;;;;;;5022485;28;20215;-79
2023/01/19 06:27:44;;;;;;;32.67;11.67;;;11.10;91.30;;;;;;5018990;28;20203;-80
2023/01/19 06:30:13;;;;;;;30.87;13.33;;;11.10;91.30;;;;;;5033194;28;20195;-77
2023/01/19 06:32:43;;;;;;;26.03;11.57;;;11.10;91.40;;;;;;5015469;28;20294;-77
2023/01/19 06:35:11;;;;;;;30.83;14.00;;;11.10;91.40;;;;;;5027416;28;20247;-78
2023/01/19 06:37:40;;;;;;;28.50;12.70;;;11.10;91.40;;;;;;5022484;28;20266;-78
2023/01/19 06:40:10;;;;;;;31.73;13.13;;;11.00;91.40;;;;;;5021906;28;20291;-79
2023/01/19 06:42:41;;;;;;;27.03;12.77;;;11.10;91.50;;;;;;5029497;28;20192;-78
2023/01/19 06:45:10;;;;;;;38.70;14.00;;;11.10;91.50;;;;;;5016668;28;20680;-80
2023/01/19 06:47:39;;;;;;;39.27;15.00;;;11.10;91.70;;;;;;5019723;28;20594;-77
2023/01/19 06:50:10;;;;;;;31.83;15.37;;;11.10;91.70;;;;;;5025394;28;20207;-78
2023/01/19 06:52:41;;;;;;;38.80;17.40;;;11.20;91.70;;;;;;5024209;28;20227;-78
2023/01/19 06:55:10;;;;;;;38.77;15.93;;;11.20;91.90;;;;;;5021550;28;20195;-80
2023/01/19 06:57:39;;;;;;;39.33;15.73;;;11.20;92.00;;;;;;5018114;28;20459;-76
2023/01/19 07:00:10;;;;;;;38.77;16.47;;;11.20;92.20;;;;;;5023285;28;20198;-77
2023/01/19 07:02:42;;;;;;;33.20;15.37;;;11.20;92.30;;;;;;5021470;28;20199;-78
2023/01/19 07:05:13;;;;;;;42.33;16.00;;;11.30;92.30;;;;;;5026143;28;20616;-76
2023/01/19 07:07:43;;;;;;;43.77;16.97;;;11.30;92.30;;;;;;5016127;28;20215;-80
2023/01/19 07:10:14;;;;;;;38.43;16.50;;;11.40;92.30;;;;;;5015541;28;20208;-79
2023/01/19 07:12:45;;;;;;;40.13;15.50;;;11.40;92.40;;;;;;5031005;28;20298;-78
2023/01/19 07:15:14;;;;;;;31.07;13.37;;;11.50;92.60;;;;;;5030095;28;20245;-78
2023/01/19 07:17:42;;;;;;;25.53;11.40;;;11.60;92.80;;;;;;5026855;28;20197;-79
2023/01/19 07:20:13;;;;;;;25.27;7.97;;;11.60;92.80;;;;;;5026816;28;20191;-78
2023/01/19 07:22:44;;;;;;;30.07;6.03;;;11.80;93.70;;;;;;5034100;28;20246;-80
2023/01/19 07:25:13;;;;;;;26.03;5.20;;;11.90;94.70;;;;;;5028885;28;20207;-79
2023/01/19 07:27:41;;;;;;;17.47;4.67;;;12.10;96.20;;;;;;5025772;28;20257;-76
2023/01/19 07:30:10;;;;;;;18.37;5.43;;;12.30;96.50;;;;;;5027293;28;20206;-80
2023/01/19 07:32:39;;;;;;;18.33;4.90;;;12.50;96.80;;;;;;5028218;28;20199;-78
2023/01/19 07:35:08;;;;;;;31.03;5.73;;;12.70;96.70;;;;;;5027020;28;20234;-78
2023/01/19 07:37:37;;;;;;;26.83;5.53;;;13.00;96.60;;;;;;5022016;28;20200;-78
2023/01/19 07:40:07;;;;;;;17.53;4.27;;;13.20;96.40;;;;;;5038006;28;20567;-77
2023/01/19 07:42:35;;;;;;;28.23;5.37;;;13.40;96.10;;;;;;5029163;28;20196;-77
2023/01/19 07:45:04;;;;;;;23.73;5.03;;;13.50;95.90;;;;;;5033590;28;20211;-78
2023/01/19 07:47:32;;;;;;;28.63;5.33;;;13.70;95.70;;;;;;5036712;28;20193;-79
2023/01/19 07:50:00;;;;;;;23.63;5.00;;;14.00;95.40;;;;;;5015802;28;20207;-81
2023/01/19 07:52:29;;;;;;;29.30;4.43;;;14.10;94.90;;;;;;5021840;28;20282;-79
2023/01/19 07:55:00;;;;;;;25.17;4.17;;;14.30;94.70;;;;;;5019964;28;20204;-80
2023/01/19 07:57:28;;;;;;;19.43;4.67;;;14.50;94.40;;;;;;5024385;28;20207;-82
2023/01/19 07:59:57;;;;;;;18.10;3.87;;;14.60;94.00;;;;;;5035336;28;20196;-79
2023/01/19 08:02:25;;;;;;;16.60;4.20;;;14.70;93.60;;;;;;5034287;28;20246;-80
2023/01/19 08:04:53;;;;;;;20.43;4.10;;;14.90;93.10;;;;;;5033676;28;20196;-78
2023/01/19 08:07:22;;;;;;;36.67;4.77;;;15.00;92.60;;;;;;5033630;28;20536;-76
2023/01/19 08:09:50;;;;;;;21.90;4.30;;;15.20;92.50;;;;;;5029167;28;20199;-80
2023/01/19 08:12:20;;;;;;;31.87;5.03;;;15.30;92.00;;;;;;5027306;28;20567;-78
2023/01/19 08:14:49;;;;;;;24.53;4.93;;;15.40;91.70;;;;;;5027371;28;20195;-79
2023/01/19 08:17:18;;;;;;;27.63;4.50;;;15.50;91.30;;;;;;5027070;28;20203;-76
2023/01/19 08:19:46;;;;;;;17.07;4.30;;;15.70;91.30;;;;;;5024523;28;20215;-76
2023/01/19 08:22:15;;;;;;;21.10;3.93;;;15.80;90.80;;;;;;5026921;28;20209;-78
2023/01/19 08:24:43;;;;;;;27.47;4.53;;;15.90;90.70;;;;;;5036765;28;20195;-78
2023/01/19 08:27:11;;;;;;;23.20;4.17;;;16.00;90.60;;;;;;5030197;28;20689;-79
2023/01/19 08:29:41;;;;;;;23.13;4.87;;;16.10;90.20;;;;;;5028034;28;20196;-77
2023/01/19 08:32:09;;;;;;;23.93;3.87;;;16.20;90.00;;;;;;5029849;28;20251;-80
2023/01/19 08:34:38;;;;;;;26.60;3.93;;;16.30;90.00;;;;;;5036491;28;20204;-79
2023/01/19 08:37:06;;;;;;;27.03;3.73;;;16.40;89.60;;;;;;5036721;28;20191;-78
2023/01/19 08:39:35;;;;;;;28.17;4.10;;;16.50;89.10;;;;;;5026216;28;20257;-79
2023/01/19 08:42:04;;;;;;;17.90;3.97;;;16.60;88.60;;;;;;5038167;28;20195;-79
2023/01/19 08:44:32;;;;;;;25.47;4.77;;;16.70;88.40;;;;;;5031018;28;20204;-78
2023/01/19 08:47:02;;;;;;;18.20;4.03;;;16.80;88.40;;;;;;5023974;28;20227;-77
2023/01/19 08:49:30;;;;;;;32.17;4.83;;;16.90;88.00;;;;;;5025537;28;20203;-79
2023/01/19 08:51:59;;;;;;;34.53;4.73;;;17.00;87.80;;;;;;5016574;28;20247;-78
2023/01/19 08:54:27;;;;;;;21.93;4.40;;;17.10;86.70;;;;;;5015214;28;20223;-79
2023/01/19 08:56:59;;;;;;;22.17;3.90;;;17.20;86.70;;;;;;5035544;28;20203;-77
2023/01/19 08:59:27;;;;;;;23.67;3.87;;;17.20;85.40;;;;;;5028941;28;20194;-81
2023/01/19 09:01:55;;;;;;;22.27;3.87;;;17.30;85.30;;;;;;5031336;28;20250;-78
2023/01/19 09:04:25;;;;;;;29.53;3.73;;;17.40;84.20;;;;;;5025679;28;20207;-79
2023/01/19 09:06:54;;;;;;;21.37;4.77;;;17.50;84.00;;;;;;5026613;28;20220;-80
2023/01/19 09:09:22;;;;;;;16.17;3.33;;;17.60;83.20;;;;;;5020193;28;20201;-80
2023/01/19 09:11:51;;;;;;;25.93;4.70;;;17.70;83.00;;;;;;5026075;28;20196;-80
2023/01/19 09:14:19;;;;;;;26.47;4.03;;;17.70;82.60;;;;;;5025363;28;20737;-80
2023/01/19 09:16:47;;;;;;;27.27;3.97;;;17.80;82.00;;;;;;5020056;28;20274;-80
2023/01/19 09:19:16;;;;;;;33.47;3.80;;;17.90;82.40;;;;;;5019424;28;20215;-79
2023/01/19 09:21:45;;;;;;;26.03;4.33;;;18.00;81.70;;;;;;5017225;28;20197;-79
2023/01/19 09:24:14;;;;;;;24.53;3.63;;;18.10;81.90;;;;;;5019970;28;20252;-79
2023/01/19 09:26:42;;;;;;;20.20;3.83;;;18.20;81.40;;;;;;5026701;28;20251;-78
2023/01/19 09:29:10;;;;;;;22.97;4.80;;;18.20;81.20;;;;;;5020780;28;20196;-79
2023/01/19 09:31:39;;;;;;;22.42;4.65;;;18.30;80.60;;;;;;5023873;28;20200;-77
2023/01/19 09:34:08;;;;;;;21.30;3.60;;;18.40;81.10;;;;;;5019385;28;20684;-77
2023/01/19 09:36:38;;;;;;;26.03;3.57;;;18.50;80.90;;;;;;5021729;28;20193;-79
2023/01/19 09:39:11;;;;;;;29.77;4.30;;;18.50;79.40;;;;;;5021396;28;20215;-80
2023/01/19 09:41:45;;;;;;;28.53;4.37;;;18.60;79.70;;;;;;5015619;28;20625;-78
2023/01/19 09:44:18;;;;;;;25.10;3.90;;;18.70;78.90;;;;;;5017547;28;20196;-79
2023/01/19 09:46:47;;;;;;;22.87;4.47;;;18.70;78.60;;;;;;5013974;28;20211;-78
2023/01/19 09:49:19;;;;;;;22.17;3.70;;;18.80;78.30;;;;;;5017502;28;20208;-78
2023/01/19 09:51:50;;;;;;;32.35;4.53;;;18.90;77.90;;;;;;5019979;28;20222;-78
2023/01/19 09:54:24;;;;;;;22.95;4.10;;;18.90;77.20;;;;;;5024268;28;20612;-78
2023/01/19 09:56:57;;;;;;;29.35;4.47;;;19.00;76.70;;;;;;5023739;28;20204;-79
2023/01/19 09:59:28;;;;;;;24.80;3.08;;;19.10;77.20;;;;;;5018097;28;20566;-79
2023/01/19 10:02:18;;;;;;;30.45;4.20;;;19.10;77.10;;;;;;5024717;28;21155;-80
2023/01/19 10:04:59;;;;;;;38.13;4.38;;;19.20;77.00;;;;;;5020230;28;20192;-80
2023/01/19 10:07:39;;;;;;;17.45;2.97;;;19.30;75.20;;;;;;5024795;28;20208;-78
2023/01/19 10:10:17;;;;;;;16.83;3.60;;;19.30;74.80;;;;;;5022338;28;20667;-76
2023/01/19 10:13:02;;;;;;;23.13;3.60;;;19.40;73.40;;;;;;5026111;28;20192;-79
2023/01/19 10:15:42;;;;;;;17.63;3.05;;;19.40;73.00;;;;;;5019536;28;20295;-77
2023/01/19 10:18:17;;;;;;;32.72;5.15;;;19.50;73.20;;;;;;5021834;28;20192;-79
2023/01/19 10:20:50;;;;;;;22.30;2.85;;;19.50;73.30;;;;;;5023285;28;20289;-77
2023/01/19 10:23:32;;;;;;;29.42;4.25;;;19.60;72.90;;;;;;5013255;28;20250;-76
2023/01/19 10:26:08;;;;;;;19.58;4.15;;;19.70;73.00;;;;;;5023202;28;20192;-79
2023/01/19 10:28:38;;;;;;;20.45;3.83;;;19.70;71.70;;;;;;5026890;28;20710;-79
2023/01/19 10:31:08;;;;;;;14.55;3.47;;;19.80;72.70;;;;;;5023326;28;20610;-79
2023/01/19 10:33:38;;;;;;;19.85;2.58;;;19.90;72.40;;;;;;5027566;28;20687;-80
2023/01/19 10:36:15;;;;;;;34.60;4.72;;;19.90;72.10;;;;;;5027220;28;20250;-78
2023/01/19 10:38:43;;;;;;;19.23;3.22;;;20.00;71.90;;;;;;5024400;28;20278;-80
2023/01/19 10:41:18;;;;;;;22.65;2.97;;;20.10;71.10;;;;;;5028843;28;20207;-80
2023/01/19 10:43:47;;;;;;;20.35;3.47;;;20.10;70.20;;;;;;5030563;28;20191;-78
2023/01/19 10:46:24;;;;;;;29.77;4.40;;;20.20;69.40;;;;;;5030867;28;20734;-78
2023/01/19 10:48:55;;;;;;;28.65;4.28;;;20.20;69.40;;;;;;5023641;28;20246;-78
2023/01/19 10:51:23;;;;;;;23.55;3.55;;;20.30;68.40;;;;;;5031361;28;20206;-76
2023/01/19 10:53:57;;;;;;;19.95;3.97;;;20.30;67.70;;;;;;5026975;28;20782;-77
2023/01/19 10:56:31;;;;;;;24.38;3.38;;;20.40;66.40;;;;;;5028463;28;20199;-79
2023/01/19 10:59:04;;;;;;;27.00;4.22;;;20.40;67.00;;;;;;5020207;28;20560;-78
2023/01/19 11:01:35;;;;;;;26.77;4.35;;;20.50;67.20;;;;;;5027569;28;20200;-77
2023/01/19 11:04:21;;;;;;;19.05;3.42;;;20.50;65.60;;;;;;5022508;28;20226;-78
2023/01/19 11:06:49;;;;;;;23.23;3.95;;;20.50;65.00;;;;;;5032342;28;20208;-78
2023/01/19 11:09:19;;;;;;;26.83;5.03;;;20.60;64.50;;;;;;5016329;28;20322;-77
2023/01/19 11:11:51;;;;;;;24.80;4.30;;;20.60;64.40;;;;;;5017989;28;20223;-77
2023/01/19 11:14:22;;;;;;;26.95;3.60;;;20.60;63.20;;;;;;5021407;28;20272;-78
2023/01/19 11:16:52;;;;;;;23.25;3.80;;;20.70;62.90;;;;;;5022514;28;20809;-78
2023/01/19 11:19:26;;;;;;;28.73;4.00;;;20.70;63.00;;;;;;5019395;28;20244;-78
2023/01/19 11:22:09;;;;;;;26.15;4.90;;;20.70;62.80;;;;;;5027129;28;20200;-79
2023/01/19 11:24:39;;;;;;;28.85;3.88;;;20.80;63.20;;;;;;5025541;28;20223;-78
2023/01/19 11:27:09;;;;;;;24.52;3.42;;;20.80;63.20;;;;;;5024207;28;20216;-76
2023/01/19 11:29:38;;;;;;;23.88;2.83;;;20.80;62.30;;;;;;5032445;28;20196;-77
2023/01/19 11:32:19;;;;;;;28.70;4.40;;;20.90;63.40;;;;;;5027289;28;20204;-76
2023/01/19 11:34:48;;;;;;;29.40;5.53;;;20.90;62.30;;;;;;5026512;28;20196;-77
2023/01/19 11:37:33;;;;;;;22.70;2.97;;;20.90;62.00;;;;;;5016663;28;20367;-76
2023/01/19 11:40:04;;;;;;;26.10;3.35;;;20.90;62.20;;;;;;5024040;28;20242;-78
2023/01/19 11:42:36;;;;;;;21.35;4.07;;;21.00;62.40;;;;;;5017273;28;20208;-78
2023/01/19 11:45:12;;;;;;;26.83;3.72;;;21.00;62.60;;;;;;5021419;28;20196;-77
2023/01/19 11:47:43;;;;;;;14.93;3.58;;;21.00;62.20;;;;;;5019634;28;20215;-76
2023/01/19 11:50:22;;;;;;;27.80;3.92;;;21.10;62.20;;;;;;5017765;28;20294;-78
2023/01/19 11:52:55;;;;;;;31.25;4.40;;;21.20;62.20;;;;;;5020858;28;20228;-76
2023/01/19 11:55:32;;;;;;;35.67;4.25;;;21.20;62.30;;;;;;5019837;28;20196;-75
2023/01/19 11:58:04;;;;;;;16.63;2.75;;;21.20;61.10;;;;;;5017400;28;20196;-78
2023/01/19 12:00:37;;;;;;;19.80;3.47;;;21.30;61.30;;;;;;5021979;28;20203;-77
2023/01/19 12:03:14;;;;;;;22.98;3.20;;;21.30;61.50;;;;;;5018979;28;20204;-78
2023/01/19 12:05:47;;;;;;;22.85;3.28;;;21.20;61.40;;;;;;5024421;28;20187;-80
2023/01/19 12:08:20;;;;;;;20.13;3.45;;;21.30;62.00;;;;;;5011161;28;20263;-80
2023/01/19 12:11:47;;;;;;;19.63;3.33;;;21.30;61.70;;;;;;5011003;28;20254;-78
2023/01/19 12:14:25;;;;;;;29.35;3.47;;;21.30;62.00;;;;;;5015900;28;20200;-78
2023/01/19 12:16:59;;;;;;;21.73;3.55;;;21.40;61.20;;;;;;5018178;28;20537;-77
2023/01/19 12:19:35;;;;;;;30.85;3.97;;;21.30;61.20;;;;;;5012511;28;20658;-79
2023/01/19 12:22:05;;;;;;;18.25;3.10;;;21.30;61.80;;;;;;5016749;28;20287;-79
2023/01/19 12:24:40;;;;;;;20.42;3.47;;;21.40;62.30;;;;;;5007110;28;20204;-78
2023/01/19 12:27:20;;;;;;;29.50;3.45;;;21.40;61.40;;;;;;5019710;28;20229;-75
2023/01/19 12:29:51;;;;;;;24.88;3.08;;;21.40;61.30;;;;;;5022746;28;20661;-76
2023/01/19 12:32:31;;;;;;;25.42;4.07;;;21.40;61.40;;;;;;5026332;28;20720;-78
2023/01/19 12:34:59;;;;;;;20.08;2.88;;;21.40;61.10;;;;;;5023513;28;20231;-77
2023/01/19 12:37:34;;;;;;;25.30;3.33;;;21.50;61.40;;;;;;5015958;28;20298;-76
2023/01/19 12:40:18;;;;;;;21.80;3.95;;;21.50;61.50;;;;;;5017902;28;20556;-78
2023/01/19 12:42:49;;;;;;;19.50;3.30;;;21.50;60.40;;;;;;5017455;28;20191;-77
2023/01/19 12:45:24;;;;;;;20.52;3.38;;;21.60;60.30;;;;;;5021846;28;20250;-78
2023/01/19 12:47:55;;;;;;;11.75;2.70;;;21.60;59.80;;;;;;5011865;28;20316;-77
2023/01/19 12:50:28;;;;;;;19.65;2.97;;;21.70;59.70;;;;;;5015943;28;20651;-77
2023/01/19 12:52:59;;;;;;;18.95;2.70;;;21.70;59.50;;;;;;5018252;28;20275;-79
2023/01/19 12:55:29;;;;;;;23.10;3.25;;;21.80;59.60;;;;;;5011059;28;20240;-78
2023/01/19 12:58:03;;;;;;;17.55;3.05;;;21.90;59.10;;;;;;5021002;28;20191;-76
2023/01/19 13:00:36;;;;;;;14.38;2.50;;;22.00;59.20;;;;;;5022985;28;20690;-75
2023/01/19 13:03:46;;;;;;;17.38;2.58;;;22.00;58.40;;;;;;5015674;28;20625;-77